createdAt,value
2018-07-25T00:02:20.203Z,97288.00
2018-07-25T00:04:49.445Z,97279.00
2018-07-25T00:07:18.650Z,97286.00
2018-07-25T00:09:47.868Z,97281.00
2018-07-25T00:12:17.071Z,97286.00
2018-07-25T00:14:46.425Z,97274.00
2018-07-25T00:17:15.619Z,97277.00
2018-07-25T00:19:44.835Z,97269.00
2018-07-25T00:22:14.069Z,97271.00
2018-07-25T00:24:43.291Z,97274.00
2018-07-25T00:27:12.493Z,97272.00
2018-07-25T00:29:41.745Z,97268.00
2018-07-25T00:32:11.011Z,97276.00
2018-07-25T00:34:40.366Z,97275.00
2018-07-25T00:37:09.692Z,97271.00
2018-07-25T00:39:38.910Z,97274.00
2018-07-25T00:42:08.116Z,97279.00
2018-07-25T00:44:37.441Z,97274.00
2018-07-25T00:47:06.817Z,97273.00
2018-07-25T00:49:36.034Z,97270.00
2018-07-25T00:52:05.258Z,97279.00
2018-07-25T00:54:34.599Z,97271.00
2018-07-25T00:57:03.797Z,97273.00
2018-07-25T00:59:33.019Z,97275.00
2018-07-25T01:02:02.304Z,97269.00
2018-07-25T01:04:31.552Z,97277.00
2018-07-25T01:07:00.751Z,97266.00
2018-07-25T01:09:29.950Z,97268.00
2018-07-25T01:11:59.185Z,97278.00
2018-07-25T01:14:28.389Z,97277.00
2018-07-25T01:16:57.677Z,97274.00
2018-07-25T01:19:26.889Z,97277.00
2018-07-25T01:21:56.112Z,97277.00
2018-07-25T01:24:25.282Z,97267.00
2018-07-25T01:26:54.513Z,97266.00
2018-07-25T01:29:23.977Z,97267.00
2018-07-25T01:31:53.207Z,97270.00
2018-07-25T01:34:22.409Z,97271.00
2018-07-25T01:36:51.677Z,97277.00
2018-07-25T01:39:20.854Z,97258.00
2018-07-25T01:41:50.098Z,97271.00
2018-07-25T01:44:19.375Z,97273.00
2018-07-25T01:46:48.597Z,97273.00
2018-07-25T01:49:17.801Z,97270.00
2018-07-25T01:51:47.132Z,97269.00
2018-07-25T01:54:16.349Z,97268.00
2018-07-25T01:56:45.574Z,97274.00
2018-07-25T01:59:14.770Z,97275.00
2018-07-25T02:01:44.091Z,97270.00
2018-07-25T02:04:13.256Z,97266.00
2018-07-25T02:06:42.493Z,97265.00
2018-07-25T02:09:12.130Z,97270.00
2018-07-25T02:11:41.363Z,97279.00
2018-07-25T02:14:10.569Z,97273.00
2018-07-25T02:16:39.798Z,97271.00
2018-07-25T02:19:08.992Z,97269.00
2018-07-25T02:21:38.221Z,97266.00
2018-07-25T02:24:07.449Z,97259.00
2018-07-25T02:26:36.928Z,97265.00
2018-07-25T02:29:06.141Z,97259.00
2018-07-25T02:31:35.389Z,97259.00
2018-07-25T02:34:09.905Z,97261.00
2018-07-25T02:36:39.094Z,97264.00
2018-07-25T02:39:11.483Z,97278.00
2018-07-25T02:41:40.763Z,97272.00
2018-07-25T02:44:09.937Z,97272.00
2018-07-25T02:46:39.124Z,97275.00
2018-07-25T02:49:08.410Z,97285.00
2018-07-25T02:51:37.622Z,97281.00
2018-07-25T02:54:07.490Z,97282.00
2018-07-25T02:56:37.301Z,97277.00
2018-07-25T02:59:06.528Z,97290.00
2018-07-25T03:01:35.725Z,97282.00
2018-07-25T03:04:04.953Z,97284.00
2018-07-25T03:06:34.134Z,97285.00
2018-07-25T03:09:03.420Z,97282.00
2018-07-25T03:11:32.590Z,97287.00
2018-07-25T03:14:01.812Z,97293.00
2018-07-25T03:16:31.030Z,97294.00
2018-07-25T03:19:00.237Z,97303.00
2018-07-25T03:21:29.429Z,97296.00
2018-07-25T03:23:58.685Z,97298.00
2018-07-25T03:26:27.881Z,97300.00
2018-07-25T03:28:57.150Z,97286.00
2018-07-25T03:31:26.467Z,97294.00
2018-07-25T03:33:55.675Z,97296.00
2018-07-25T03:36:24.896Z,97295.00
2018-07-25T03:38:54.128Z,97296.00
2018-07-25T03:41:23.402Z,97291.00
2018-07-25T03:43:52.620Z,97294.00
2018-07-25T03:46:21.833Z,97291.00
2018-07-25T03:48:51.061Z,97293.00
2018-07-25T03:51:20.241Z,97300.00
2018-07-25T03:53:49.443Z,97294.00
2018-07-25T03:56:18.628Z,97295.00
2018-07-25T03:58:47.847Z,97296.00
2018-07-25T04:01:17.051Z,97301.00
2018-07-25T04:03:46.281Z,97305.00
2018-07-25T04:06:15.492Z,97302.00
2018-07-25T04:08:44.770Z,97314.00
2018-07-25T04:11:13.990Z,97307.00
2018-07-25T04:13:43.237Z,97311.00
2018-07-25T04:16:12.440Z,97314.00
2018-07-25T04:18:41.643Z,97314.00
2018-07-25T04:21:10.874Z,97309.00
2018-07-25T04:23:40.138Z,97317.00
2018-07-25T04:26:09.387Z,97330.00
2018-07-25T04:28:38.594Z,97322.00
2018-07-25T04:31:07.816Z,97323.00
2018-07-25T04:33:37.081Z,97328.00
2018-07-25T04:36:06.342Z,97328.00
2018-07-25T04:38:35.577Z,97328.00
2018-07-25T04:41:04.825Z,97328.00
2018-07-25T04:43:34.077Z,97331.00
2018-07-25T04:46:03.336Z,97333.00
2018-07-25T04:48:32.632Z,97338.00
2018-07-25T04:51:01.921Z,97341.00
2018-07-25T04:53:31.123Z,97347.00
2018-07-25T04:56:00.385Z,97351.00
2018-07-25T04:58:29.995Z,97354.00
2018-07-25T05:00:59.901Z,97355.00
2018-07-25T05:03:29.130Z,97357.00
2018-07-25T05:05:58.396Z,97351.00
2018-07-25T05:08:27.663Z,97354.00
2018-07-25T05:10:56.884Z,97352.00
2018-07-25T05:13:26.291Z,97354.00
2018-07-25T05:15:55.536Z,97347.00
2018-07-25T05:18:24.737Z,97351.00
2018-07-25T05:20:53.964Z,97355.00
2018-07-25T05:23:23.248Z,97354.00
2018-07-25T05:25:52.425Z,97357.00
2018-07-25T05:28:21.609Z,97354.00
2018-07-25T05:30:50.835Z,97359.00
2018-07-25T05:33:20.076Z,97354.00
2018-07-25T05:35:49.288Z,97363.00
2018-07-25T05:38:18.510Z,97371.00
2018-07-25T05:40:47.757Z,97342.00
2018-07-25T05:43:16.976Z,97361.00
2018-07-25T05:45:46.319Z,97359.00
2018-07-25T05:48:15.521Z,97360.00
2018-07-25T05:50:45.051Z,97368.00
2018-07-25T05:53:14.301Z,97366.00
2018-07-25T05:55:43.832Z,97364.00
2018-07-25T05:58:13.059Z,97363.00
2018-07-25T06:00:42.312Z,97363.00
2018-07-25T06:03:11.568Z,97357.00
2018-07-25T06:05:40.816Z,97356.00
2018-07-25T06:08:10.073Z,97365.00
2018-07-25T06:10:39.338Z,97367.00
2018-07-25T06:13:08.622Z,97363.00
2018-07-25T06:15:37.935Z,97366.00
2018-07-25T06:18:07.294Z,97364.00
2018-07-25T06:20:36.558Z,97365.00
2018-07-25T06:23:05.825Z,97363.00
2018-07-25T06:25:35.113Z,97366.00
2018-07-25T06:28:04.351Z,97363.00
2018-07-25T06:30:33.650Z,97357.00
2018-07-25T06:33:02.916Z,97361.00
2018-07-25T06:35:32.167Z,97357.00
2018-07-25T06:38:01.467Z,97357.00
2018-07-25T06:40:31.406Z,97356.00
2018-07-25T06:43:01.373Z,97357.00
2018-07-25T06:45:30.605Z,97359.00
2018-07-25T06:47:59.875Z,97357.00
2018-07-25T06:50:29.119Z,97359.00
2018-07-25T06:52:58.341Z,97358.00
2018-07-25T06:55:27.642Z,97354.00
2018-07-25T06:57:56.900Z,97359.00
2018-07-25T07:00:26.133Z,97366.00
2018-07-25T07:02:55.368Z,97362.00
2018-07-25T07:05:24.585Z,97354.00
2018-07-25T07:07:54.621Z,97361.00
2018-07-25T07:10:24.316Z,97373.00
2018-07-25T07:12:53.564Z,97363.00
2018-07-25T07:15:22.814Z,97360.00
2018-07-25T07:17:52.095Z,97370.00
2018-07-25T07:20:21.311Z,97375.00
2018-07-25T07:22:50.660Z,97364.00
2018-07-25T07:25:19.843Z,97374.00
2018-07-25T07:27:49.052Z,97380.00
2018-07-25T07:30:18.015Z,97369.00
2018-07-25T07:32:47.260Z,97379.00
2018-07-25T07:35:16.497Z,97376.00
2018-07-25T07:37:45.847Z,97378.00
2018-07-25T07:40:15.040Z,97382.00
2018-07-25T07:42:44.241Z,97384.00
2018-07-25T07:45:13.445Z,97389.00
2018-07-25T07:47:42.772Z,97382.00
2018-07-25T07:50:12.037Z,97387.00
2018-07-25T07:52:41.236Z,97379.00
2018-07-25T07:55:10.443Z,97385.00
2018-07-25T07:57:39.669Z,97373.00
2018-07-25T08:00:08.935Z,97379.00
2018-07-25T08:02:38.139Z,97384.00
2018-07-25T08:05:07.495Z,97384.00
2018-07-25T08:07:36.606Z,97389.00
2018-07-25T08:10:05.993Z,97385.00
2018-07-25T08:12:35.233Z,97388.00
2018-07-25T08:15:04.976Z,97381.00
2018-07-25T08:17:34.191Z,97387.00
2018-07-25T08:20:03.586Z,97399.00
2018-07-25T08:22:32.786Z,97385.00
2018-07-25T08:25:02.038Z,97390.00
2018-07-25T08:27:31.265Z,97397.00
2018-07-25T08:30:00.560Z,97398.00
2018-07-25T08:32:29.875Z,97399.00
2018-07-25T08:34:59.101Z,97401.00
2018-07-25T08:37:28.357Z,97392.00
2018-07-25T08:39:57.613Z,97395.00
2018-07-25T08:42:26.859Z,97396.00
2018-07-25T08:44:56.092Z,97392.00
2018-07-25T08:47:25.767Z,97402.00
2018-07-25T08:49:55.001Z,97396.00
2018-07-25T08:52:24.279Z,97397.00
2018-07-25T08:54:53.510Z,97407.00
2018-07-25T08:57:22.732Z,97399.00
2018-07-25T08:59:51.990Z,97401.00
2018-07-25T09:02:21.225Z,97386.00
2018-07-25T09:04:50.505Z,97394.00
2018-07-25T09:07:19.692Z,97400.00
2018-07-25T09:09:48.921Z,97403.00
2018-07-25T09:12:18.122Z,97388.00
2018-07-25T09:14:47.382Z,97400.00
2018-07-25T09:17:16.586Z,97405.00
2018-07-25T09:19:45.817Z,97390.00
2018-07-25T09:22:15.065Z,97390.00
2018-07-25T09:24:44.313Z,97395.00
2018-07-25T09:27:13.507Z,97398.00
2018-07-25T09:29:42.761Z,97397.00
2018-07-25T09:32:12.449Z,97393.00
2018-07-25T09:34:41.692Z,97395.00
2018-07-25T09:37:10.917Z,97390.00
2018-07-25T09:39:40.173Z,97395.00
2018-07-25T09:42:09.409Z,97404.00
2018-07-25T09:44:38.661Z,97396.00
2018-07-25T09:47:08.039Z,97403.00
2018-07-25T09:49:37.211Z,97393.00
2018-07-25T09:52:06.474Z,97402.00
2018-07-25T09:54:35.710Z,97390.00
2018-07-25T09:57:05.158Z,97387.00
2018-07-25T09:59:34.392Z,97388.00
2018-07-25T10:02:03.654Z,97293.00
2018-07-25T10:04:32.871Z,97387.00
2018-07-25T10:07:02.144Z,97392.00
2018-07-25T10:09:31.369Z,97392.00
2018-07-25T10:12:00.601Z,97387.00
2018-07-25T10:14:29.865Z,97396.00
2018-07-25T10:16:59.204Z,97379.00
2018-07-25T10:19:28.485Z,97381.00
2018-07-25T10:21:57.785Z,97379.00
2018-07-25T10:24:27.138Z,97377.00
2018-07-25T10:26:56.143Z,97377.00
2018-07-25T10:29:25.484Z,97377.00
2018-07-25T10:31:54.760Z,97383.00
2018-07-25T10:34:23.962Z,97378.00
2018-07-25T10:36:53.228Z,97376.00
2018-07-25T10:39:22.434Z,97384.00
2018-07-25T10:41:51.725Z,97378.00
2018-07-25T10:44:20.943Z,97370.00
2018-07-25T10:46:50.148Z,97378.00
2018-07-25T10:49:19.365Z,97377.00
2018-07-25T10:51:48.628Z,97379.00
2018-07-25T10:54:17.834Z,97370.00
2018-07-25T10:56:47.087Z,97374.00
2018-07-25T10:59:16.633Z,97378.00
2018-07-25T11:01:46.029Z,97375.00
2018-07-25T11:04:15.272Z,97375.00
2018-07-25T11:06:44.566Z,97365.00
2018-07-25T11:09:13.821Z,97378.00
2018-07-25T11:11:43.036Z,97372.00
2018-07-25T11:14:12.284Z,97368.00
2018-07-25T11:16:41.476Z,97363.00
2018-07-25T11:19:11.494Z,97381.00
2018-07-25T11:21:40.670Z,97373.00
2018-07-25T11:24:09.901Z,97372.00
2018-07-25T11:26:39.144Z,97368.00
2018-07-25T11:29:08.389Z,97368.00
2018-07-25T11:31:37.663Z,97363.00
2018-07-25T11:34:06.889Z,97374.00
2018-07-25T11:36:36.084Z,97375.00
2018-07-25T11:39:09.479Z,97377.00
2018-07-25T11:41:38.808Z,97361.00
2018-07-25T11:44:08.753Z,97367.00
2018-07-25T11:46:37.967Z,97371.00
2018-07-25T11:49:07.237Z,97370.00
2018-07-25T11:51:36.465Z,97367.00
2018-07-25T11:54:05.693Z,97363.00
2018-07-25T11:56:34.894Z,97369.00
2018-07-25T11:59:04.221Z,97367.00
2018-07-25T12:01:33.483Z,97362.00
2018-07-25T12:04:02.692Z,97363.00
2018-07-25T12:06:31.885Z,97356.00
2018-07-25T12:09:01.166Z,97353.00
2018-07-25T12:11:30.401Z,97365.00
2018-07-25T12:13:59.689Z,97359.00
2018-07-25T12:16:28.931Z,97372.00
2018-07-25T12:18:58.313Z,97359.00
2018-07-25T12:21:27.517Z,97361.00
2018-07-25T12:23:56.777Z,97352.00
2018-07-25T12:26:25.998Z,97359.00
2018-07-25T12:28:55.241Z,97351.00
2018-07-25T12:31:24.476Z,97362.00
2018-07-25T12:33:53.702Z,97350.00
2018-07-25T12:36:22.930Z,97348.00
2018-07-25T12:38:52.196Z,97345.00
2018-07-25T12:41:21.437Z,97340.00
2018-07-25T12:43:50.660Z,97336.00
2018-07-25T12:46:19.896Z,97330.00
2018-07-25T12:48:49.103Z,97323.00
2018-07-25T12:51:18.336Z,97330.00
2018-07-25T12:53:47.613Z,97333.00
2018-07-25T12:56:16.887Z,97328.00
2018-07-25T12:58:46.092Z,97329.00
2018-07-25T13:01:15.361Z,97328.00
2018-07-25T13:03:44.609Z,97326.00
2018-07-25T13:06:13.864Z,97321.00
2018-07-25T13:08:43.101Z,97325.00
2018-07-25T13:11:12.358Z,97314.00
2018-07-25T13:13:41.642Z,97316.00
2018-07-25T13:16:10.868Z,97319.00
2018-07-25T13:18:40.352Z,97316.00
2018-07-25T13:21:09.653Z,97314.00
2018-07-25T13:23:38.886Z,97309.00
2018-07-25T13:26:08.147Z,97308.00
2018-07-25T13:28:37.396Z,97308.00
2018-07-25T13:31:06.656Z,97313.00
2018-07-25T13:33:35.905Z,97310.00
2018-07-25T13:36:05.212Z,97303.00
2018-07-25T13:38:34.390Z,97308.00
2018-07-25T13:41:03.744Z,97308.00
2018-07-25T13:43:33.001Z,97297.00
2018-07-25T13:46:02.345Z,97292.00
2018-07-25T13:48:31.635Z,97297.00
2018-07-25T13:51:00.909Z,97293.00
2018-07-25T13:53:30.173Z,97295.00
2018-07-25T13:55:59.448Z,97285.00
2018-07-25T13:58:28.684Z,97277.00
2018-07-25T14:00:57.942Z,97277.00
2018-07-25T14:03:27.229Z,97279.00
2018-07-25T14:05:56.545Z,97280.00
2018-07-25T14:08:25.793Z,97278.00
2018-07-25T14:10:55.193Z,97279.00
2018-07-25T14:13:24.445Z,97284.00
2018-07-25T14:15:53.751Z,97281.00
2018-07-25T14:18:22.989Z,97280.00
2018-07-25T14:20:52.252Z,97280.00
2018-07-25T14:23:21.480Z,97278.00
2018-07-25T14:25:50.733Z,97276.00
2018-07-25T14:28:20.025Z,97273.00
2018-07-25T14:30:49.400Z,97264.00
2018-07-25T14:33:18.639Z,97263.00
2018-07-25T14:35:48.955Z,97263.00
2018-07-25T14:38:20.141Z,97268.00
2018-07-25T14:40:49.416Z,97268.00
2018-07-25T14:43:18.708Z,97266.00
2018-07-25T14:45:47.885Z,97262.00
2018-07-25T14:48:17.145Z,97270.00
2018-07-25T14:50:46.402Z,97265.00
2018-07-25T14:53:15.647Z,97265.00
2018-07-25T14:55:44.916Z,97281.00
2018-07-25T14:58:14.149Z,97270.00
2018-07-25T15:00:43.360Z,97271.00
2018-07-25T15:03:12.348Z,97268.00
2018-07-25T15:05:41.552Z,97248.00
2018-07-25T15:08:10.779Z,97270.00
2018-07-25T15:10:40.000Z,97265.00
2018-07-25T15:13:09.285Z,97263.00
2018-07-25T15:15:38.555Z,97267.00
2018-07-25T15:18:07.815Z,97267.00
2018-07-25T15:20:37.081Z,97265.00
2018-07-25T15:23:06.417Z,97276.00
2018-07-25T15:25:35.690Z,97266.00
2018-07-25T15:28:04.990Z,97269.00
2018-07-25T15:30:34.225Z,97269.00
2018-07-25T15:33:03.529Z,97271.00
2018-07-25T15:35:32.768Z,97262.00
2018-07-25T15:38:02.050Z,97263.00
2018-07-25T15:40:31.325Z,97256.00
2018-07-25T15:43:00.601Z,97265.00
2018-07-25T15:45:29.917Z,97260.00
2018-07-25T15:47:59.171Z,97256.00
2018-07-25T15:50:28.457Z,97252.00
2018-07-25T15:52:57.899Z,97267.00
2018-07-25T15:55:27.157Z,97258.00
2018-07-25T15:57:56.433Z,97258.00
2018-07-25T16:00:25.684Z,97246.00
2018-07-25T16:02:54.937Z,97243.00
2018-07-25T16:05:24.189Z,97231.00
2018-07-25T16:07:53.416Z,97236.00
2018-07-25T16:10:22.701Z,97241.00
2018-07-25T16:12:51.969Z,97241.00
2018-07-25T16:15:21.241Z,97236.00
2018-07-25T16:17:50.459Z,97234.00
2018-07-25T16:20:19.732Z,97234.00
2018-07-25T16:22:48.939Z,97244.00
2018-07-25T16:25:18.165Z,97234.00
2018-07-25T16:27:47.462Z,97233.00
2018-07-25T16:30:16.724Z,97231.00
2018-07-25T16:32:45.961Z,97230.00
2018-07-25T16:35:15.263Z,97231.00
2018-07-25T16:37:44.456Z,97232.00
2018-07-25T16:40:13.808Z,97235.00
2018-07-25T16:42:43.613Z,97230.00
2018-07-25T16:45:12.937Z,97232.00
2018-07-25T16:47:41.897Z,97229.00
2018-07-25T16:50:11.148Z,97227.00
2018-07-25T16:52:40.394Z,97228.00
2018-07-25T16:55:09.648Z,97236.00
2018-07-25T16:57:38.919Z,97227.00
2018-07-25T17:00:08.227Z,97228.00
2018-07-25T17:02:37.515Z,97233.00
2018-07-25T17:05:06.881Z,97233.00
2018-07-25T17:07:36.101Z,97217.00
2018-07-25T17:10:05.633Z,97229.00
2018-07-25T17:12:34.840Z,97232.00
2018-07-25T17:15:04.162Z,97228.00
2018-07-25T17:17:33.466Z,97237.00
2018-07-25T17:20:02.753Z,97238.00
2018-07-25T17:22:32.066Z,97234.00
2018-07-25T17:25:01.342Z,97243.00
2018-07-25T17:27:30.654Z,97244.00
2018-07-25T17:29:59.871Z,97246.00
2018-07-25T17:32:29.216Z,97247.00
2018-07-25T17:34:58.603Z,97248.00
2018-07-25T17:37:27.852Z,97245.00
2018-07-25T17:39:58.032Z,97254.00
2018-07-25T17:42:27.069Z,97249.00
2018-07-25T17:44:56.333Z,97256.00
2018-07-25T17:47:25.636Z,97254.00
2018-07-25T17:49:54.911Z,97252.00
2018-07-25T17:52:24.193Z,97244.00
2018-07-25T17:54:53.531Z,97249.00
2018-07-25T17:57:22.786Z,97256.00
2018-07-25T17:59:52.027Z,97256.00
2018-07-25T18:02:21.304Z,97261.00
2018-07-25T18:04:50.531Z,97255.00
2018-07-25T18:07:19.777Z,97258.00
2018-07-25T18:09:49.022Z,97269.00
2018-07-25T18:12:18.264Z,97268.00
2018-07-25T18:14:47.523Z,97267.00
2018-07-25T18:17:16.879Z,97267.00
2018-07-25T18:19:46.068Z,97277.00
2018-07-25T18:22:15.341Z,97273.00
2018-07-25T18:24:44.617Z,97279.00
2018-07-25T18:27:13.865Z,97282.00
2018-07-25T18:29:43.118Z,97279.00
2018-07-25T18:32:12.356Z,97277.00
2018-07-25T18:34:41.599Z,97289.00
2018-07-25T18:37:10.909Z,97294.00
2018-07-25T18:39:40.146Z,97285.00
2018-07-25T18:42:09.419Z,97292.00
2018-07-25T18:44:38.675Z,97291.00
2018-07-25T18:47:08.026Z,97295.00
2018-07-25T18:49:37.225Z,97294.00
2018-07-25T18:52:06.713Z,97299.00
2018-07-25T18:54:35.957Z,97296.00
2018-07-25T18:57:05.244Z,97305.00
2018-07-25T18:59:34.503Z,97298.00
2018-07-25T19:02:03.810Z,97305.00
2018-07-25T19:04:33.109Z,97307.00
2018-07-25T19:07:02.404Z,97312.00
2018-07-25T19:09:31.640Z,97300.00
2018-07-25T19:12:00.896Z,97312.00
2018-07-25T19:14:35.432Z,97308.00
2018-07-25T19:17:04.728Z,97315.00
2018-07-25T19:19:34.002Z,97311.00
2018-07-25T19:22:03.224Z,97316.00
2018-07-25T19:24:32.481Z,97321.00
2018-07-25T19:27:01.874Z,97324.00
2018-07-25T19:29:31.109Z,97330.00
2018-07-25T19:32:00.323Z,97327.00
2018-07-25T19:34:29.597Z,97323.00
2018-07-25T19:36:58.864Z,97330.00
2018-07-25T19:39:32.273Z,97326.00
2018-07-25T19:42:01.513Z,97329.00
2018-07-25T19:44:30.828Z,97338.00
2018-07-25T19:47:00.093Z,97339.00
2018-07-25T19:49:29.364Z,97338.00
2018-07-25T19:51:58.749Z,97335.00
2018-07-25T19:54:28.091Z,97346.00
2018-07-25T19:56:57.352Z,97338.00
2018-07-25T19:59:26.622Z,97342.00
2018-07-25T20:01:55.842Z,97331.00
2018-07-25T20:04:25.110Z,97334.00
2018-07-25T20:06:54.698Z,97346.00
2018-07-25T20:09:23.921Z,97337.00
2018-07-25T20:11:53.108Z,97337.00
2018-07-25T20:14:27.663Z,97339.00
2018-07-25T20:16:56.998Z,97342.00
2018-07-25T20:19:26.219Z,97342.00
2018-07-25T20:21:55.440Z,97343.00
2018-07-25T20:24:24.703Z,97350.00
2018-07-25T20:26:53.920Z,97343.00
2018-07-25T20:29:23.178Z,97343.00
2018-07-25T20:31:52.390Z,97348.00
2018-07-25T20:34:21.626Z,97357.00
2018-07-25T20:36:51.042Z,97352.00
2018-07-25T20:39:20.295Z,97359.00
2018-07-25T20:41:49.506Z,97358.00
2018-07-25T20:44:19.579Z,97364.00
2018-07-25T20:46:48.843Z,97352.00
2018-07-25T20:49:18.081Z,97372.00
2018-07-25T20:51:47.303Z,97375.00
2018-07-25T20:54:16.536Z,97380.00
2018-07-25T20:56:45.765Z,97384.00
2018-07-25T20:59:15.015Z,97378.00
2018-07-25T21:01:44.268Z,97380.00
2018-07-25T21:04:13.597Z,97395.00
2018-07-25T21:06:42.818Z,97397.00
2018-07-25T21:09:12.100Z,97395.00
2018-07-25T21:11:41.332Z,97396.00
2018-07-25T21:14:10.557Z,97395.00
2018-07-25T21:16:39.805Z,97394.00
2018-07-25T21:19:09.033Z,97396.00
2018-07-25T21:21:38.329Z,97391.00
2018-07-25T21:24:07.508Z,97404.00
2018-07-25T21:26:36.722Z,97403.00
2018-07-25T21:29:05.998Z,97406.00
2018-07-25T21:31:35.244Z,97406.00
2018-07-25T21:34:04.470Z,97404.00
2018-07-25T21:36:33.764Z,97412.00
2018-07-25T21:39:03.017Z,97407.00
2018-07-25T21:41:32.247Z,97401.00
2018-07-25T21:44:01.469Z,97405.00
2018-07-25T21:46:30.748Z,97396.00
2018-07-25T21:48:59.971Z,97404.00
2018-07-25T21:51:29.208Z,97402.00
2018-07-25T21:53:58.472Z,97404.00
2018-07-25T21:56:28.087Z,97414.00
2018-07-25T21:58:57.354Z,97413.00
2018-07-25T22:01:26.572Z,97408.00
2018-07-25T22:03:55.902Z,97410.00
2018-07-25T22:06:25.076Z,97416.00
2018-07-25T22:08:54.291Z,97405.00
2018-07-25T22:11:23.553Z,97414.00
2018-07-25T22:13:57.786Z,97412.00
2018-07-25T22:16:27.929Z,97410.00
2018-07-25T22:18:57.178Z,97419.00
2018-07-25T22:21:26.406Z,97421.00
2018-07-25T22:23:55.604Z,97424.00
2018-07-25T22:26:24.842Z,97423.00
2018-07-25T22:28:54.048Z,97430.00
2018-07-25T22:31:23.298Z,97420.00
2018-07-25T22:33:52.492Z,97424.00
2018-07-25T22:36:21.723Z,97424.00
2018-07-25T22:38:50.929Z,97423.00
2018-07-25T22:41:20.169Z,97430.00
2018-07-25T22:43:49.390Z,97422.00
2018-07-25T22:46:18.874Z,97426.00
2018-07-25T22:48:48.093Z,97419.00
2018-07-25T22:51:17.299Z,97427.00
2018-07-25T22:53:46.522Z,97429.00
2018-07-25T22:56:15.732Z,97437.00
2018-07-25T22:58:44.972Z,97424.00
2018-07-25T23:01:14.962Z,97430.00
2018-07-25T23:03:44.216Z,97433.00
2018-07-25T23:06:13.400Z,97424.00
2018-07-25T23:08:42.629Z,97425.00
2018-07-25T23:11:11.855Z,97427.00
2018-07-25T23:13:45.245Z,97432.00
2018-07-25T23:16:15.476Z,97431.00
2018-07-25T23:18:45.036Z,97437.00
2018-07-25T23:21:14.239Z,97429.00
2018-07-25T23:23:43.505Z,97432.00
2018-07-25T23:26:12.721Z,97423.00
2018-07-25T23:28:41.949Z,97437.00
2018-07-25T23:31:11.196Z,97426.00
2018-07-25T23:33:40.437Z,97436.00
2018-07-25T23:36:09.659Z,97423.00
2018-07-25T23:38:38.943Z,97427.00
2018-07-25T23:41:08.338Z,97421.00
2018-07-25T23:43:37.580Z,97422.00
2018-07-25T23:46:06.919Z,97430.00
2018-07-25T23:48:36.165Z,97424.00
2018-07-25T23:51:05.369Z,97426.00
2018-07-25T23:53:34.599Z,97420.00
2018-07-25T23:56:03.798Z,97421.00
2018-07-25T23:58:33.024Z,97411.00
